Time;durP1;ratioP1;P1;durP2;ratioP2;P2;SDS_P1;SDS_P2;PMS_P1;PMS_P2;Temp;Humidity;BMP_temperature;BMP_pressure;BME280_temperature;BME280_humidity;BME280_pressure;Samples;Min_cycle;Max_cycle;Signal;HPM_P1;HPM_P2
2022/03/01 00:02:06;;;;;;;18.70;6.87;;;;;;;;;;6143696;23;20199;-87
2022/03/01 00:05:13;;;;;;;16.03;6.43;;;;;;;;;;6142944;23;20189;-86
2022/03/01 00:08:19;;;;;;;18.73;6.90;;;;;;;;;;6143398;23;20224;-86
2022/03/01 00:11:25;;;;;;;15.93;6.47;;;;;;;;;;6142815;23;20284;-87
2022/03/01 00:14:30;;;;;;;18.13;6.13;;;;;;;;;;6143714;23;20175;-86
2022/03/01 00:17:36;;;;;;;15.90;6.20;;;;;;;;;;6144595;23;20211;-88
2022/03/01 00:20:43;;;;;;;17.50;6.83;;;;;;;;;;6142936;23;20204;-87
2022/03/01 00:23:48;;;;;;;19.20;6.50;;;;;;;;;;6144070;23;20437;-87
2022/03/01 00:26:54;;;;;;;17.20;6.77;;;;;;;;;;6143977;23;20316;-86
2022/03/01 00:30:00;;;;;;;14.70;6.13;;;;;;;;;;6145311;23;20172;-86
2022/03/01 00:33:05;;;;;;;18.57;6.10;;;;;;;;;;6143355;23;20176;-86
2022/03/01 00:36:12;;;;;;;15.87;5.73;;;;;;;;;;6144642;23;20171;-87
2022/03/01 00:39:18;;;;;;;17.10;6.63;;;;;;;;;;6159802;23;20235;-87
2022/03/01 00:42:23;;;;;;;19.00;6.70;;;;;;;;;;6142265;23;20173;-85
2022/03/01 00:45:28;;;;;;;15.03;6.30;;;;;;;;;;6142018;23;20263;-84
2022/03/01 00:48:34;;;;;;;14.43;5.80;;;;;;;;;;6159705;23;20180;-85
2022/03/01 00:51:40;;;;;;;15.97;5.87;;;;;;;;;;6159306;23;20549;-85
2022/03/01 00:54:46;;;;;;;11.47;5.60;;;;;;;;;;6130418;23;20201;-87
2022/03/01 00:57:52;;;;;;;14.27;5.30;;;;;;;;;;6130286;23;20177;-87
2022/03/01 01:00:57;;;;;;;17.03;5.90;;;;;;;;;;6130883;23;20443;-87
2022/03/01 01:04:05;;;;;;;15.87;5.77;;;;;;;;;;6132921;23;20189;-87
2022/03/01 01:07:12;;;;;;;20.00;7.10;;;;;;;;;;6131820;23;20205;-88
2022/03/01 01:10:18;;;;;;;18.13;7.40;;;;;;;;;;6132461;23;20577;-86
2022/03/01 01:13:23;;;;;;;24.53;7.73;;;;;;;;;;6148636;23;20373;-87
2022/03/01 01:16:29;;;;;;;16.27;6.33;;;;;;;;;;6131207;23;20174;-86
2022/03/01 01:19:34;;;;;;;15.10;6.63;;;;;;;;;;6133557;23;20273;-86
2022/03/01 01:22:41;;;;;;;20.17;6.57;;;;;;;;;;6135226;23;20660;-87
2022/03/01 01:25:46;;;;;;;19.30;7.13;;;;;;;;;;6134026;23;20177;-87
2022/03/01 01:28:52;;;;;;;15.57;6.73;;;;;;;;;;6132092;23;20219;-87
2022/03/01 01:31:57;;;;;;;24.00;7.13;;;;;;;;;;6131677;23;20169;-87
2022/03/01 01:35:03;;;;;;;21.40;6.00;;;;;;;;;;6131788;23;20180;-88
2022/03/01 01:38:09;;;;;;;19.30;6.40;;;;;;;;;;6131808;23;20173;-87
2022/03/01 01:41:14;;;;;;;15.57;5.87;;;;;;;;;;6131656;23;20228;-86
2022/03/01 01:44:19;;;;;;;17.17;5.90;;;;;;;;;;6131655;23;20240;-87
2022/03/01 01:47:25;;;;;;;17.97;5.83;;;;;;;;;;6131763;23;20635;-87
2022/03/01 01:50:32;;;;;;;13.37;5.33;;;;;;;;;;6131795;23;20310;-86
2022/03/01 01:53:38;;;;;;;15.93;5.63;;;;;;;;;;6135994;23;20192;-87
2022/03/01 01:56:44;;;;;;;12.30;5.30;;;;;;;;;;6145198;23;20208;-86
2022/03/01 01:59:51;;;;;;;13.37;5.37;;;;;;;;;;6146592;23;20216;-86
2022/03/01 02:02:56;;;;;;;13.40;5.33;;;;;;;;;;6146181;23;20177;-86
2022/03/01 02:06:02;;;;;;;17.87;5.97;;;;;;;;;;6162854;23;20308;-86
2022/03/01 02:09:08;;;;;;;15.43;6.10;;;;;;;;;;6149097;23;20202;-87
2022/03/01 02:12:14;;;;;;;16.70;6.50;;;;;;;;;;6144975;23;20181;-86
2022/03/01 02:15:20;;;;;;;16.77;6.37;;;;;;;;;;6144174;23;20541;-88
2022/03/01 02:18:25;;;;;;;16.50;6.20;;;;;;;;;;6144346;23;20211;-86
2022/03/01 02:21:32;;;;;;;20.17;6.20;;;;;;;;;;6144145;23;20180;-87
2022/03/01 02:24:38;;;;;;;14.33;6.10;;;;;;;;;;6144442;23;20179;-86
2022/03/01 02:27:43;;;;;;;12.97;6.43;;;;;;;;;;6145643;23;20176;-87
2022/03/01 02:30:49;;;;;;;17.80;6.37;;;;;;;;;;6145084;23;20172;-86
2022/03/01 02:33:54;;;;;;;15.37;6.57;;;;;;;;;;6145600;23;20188;-86
2022/03/01 02:37:01;;;;;;;15.43;6.10;;;;;;;;;;6143747;23;20172;-87
2022/03/01 02:40:07;;;;;;;17.90;6.97;;;;;;;;;;6160482;23;20308;-86
2022/03/01 02:43:12;;;;;;;16.60;6.60;;;;;;;;;;6160661;23;20175;-86
2022/03/01 02:46:17;;;;;;;16.60;6.60;;;;;;;;;;6144088;23;20537;-86
2022/03/01 02:49:23;;;;;;;18.60;6.50;;;;;;;;;;6144251;23;20180;-85
2022/03/01 02:52:30;;;;;;;19.60;7.40;;;;;;;;;;6144383;23;20227;-87
2022/03/01 02:55:36;;;;;;;21.13;7.43;;;;;;;;;;6132445;23;20589;-86
2022/03/01 02:58:41;;;;;;;18.47;6.47;;;;;;;;;;6166067;23;20173;-86
2022/03/01 03:01:47;;;;;;;17.60;6.30;;;;;;;;;;6151914;23;20148;-86
2022/03/01 03:04:52;;;;;;;16.80;6.97;;;;;;;;;;6151671;23;20161;-86
2022/03/01 03:08:00;;;;;;;16.53;6.43;;;;;;;;;;6151933;23;20170;-85
2022/03/01 03:11:06;;;;;;;21.20;7.00;;;;;;;;;;6151731;23;20161;-86
2022/03/01 03:14:12;;;;;;;17.70;6.40;;;;;;;;;;6151834;23;20169;-87
2022/03/01 03:17:18;;;;;;;23.77;7.40;;;;;;;;;;6151196;23;20262;-87
2022/03/01 03:20:24;;;;;;;13.50;5.90;;;;;;;;;;6151501;23;20197;-87
2022/03/01 03:23:34;;;;;;;13.70;6.13;;;;;;;;;;6151298;23;20221;-85
2022/03/01 03:26:39;;;;;;;15.97;6.53;;;;;;;;;;6150722;23;20177;-87
2022/03/01 03:29:45;;;;;;;13.47;6.60;;;;;;;;;;6151621;23;20184;-87
2022/03/01 03:32:50;;;;;;;16.57;6.20;;;;;;;;;;6151962;23;20197;-86
2022/03/01 03:35:57;;;;;;;16.97;6.50;;;;;;;;;;6151357;23;20161;-86
2022/03/01 03:39:08;;;;;;;13.83;5.93;;;;;;;;;;6151769;23;20185;-86
2022/03/01 03:42:13;;;;;;;18.07;5.93;;;;;;;;;;6151948;23;20157;-85
2022/03/01 03:45:19;;;;;;;22.47;6.20;;;;;;;;;;6151276;23;20205;-85
2022/03/01 03:48:25;;;;;;;20.83;6.50;;;;;;;;;;6144952;23;20335;-86
2022/03/01 03:51:31;;;;;;;15.87;5.77;;;;;;;;;;6141907;23;20189;-86
2022/03/01 03:54:42;;;;;;;22.07;6.63;;;;;;;;;;6144344;23;20197;-86
2022/03/01 03:57:47;;;;;;;18.10;6.73;;;;;;;;;;6141229;23;20177;-85
2022/03/01 04:00:54;;;;;;;17.97;6.80;;;;;;;;;;6136298;23;20205;-86
2022/03/01 04:04:00;;;;;;;14.70;6.47;;;;;;;;;;6139452;23;20169;-86
2022/03/01 04:07:06;;;;;;;15.53;6.37;;;;;;;;;;6136397;23;20173;-86
2022/03/01 04:10:14;;;;;;;17.10;7.03;;;;;;;;;;6136285;23;20172;-85
2022/03/01 04:13:21;;;;;;;21.00;8.00;;;;;;;;;;6120707;23;20189;-86
2022/03/01 04:16:27;;;;;;;29.63;6.97;;;;;;;;;;6136483;23;20184;-86
2022/03/01 04:19:33;;;;;;;15.60;6.03;;;;;;;;;;6135678;23;20197;-86
2022/03/01 04:22:39;;;;;;;15.03;6.03;;;;;;;;;;6134355;23;20204;-86
2022/03/01 04:25:47;;;;;;;22.23;6.17;;;;;;;;;;6132684;23;20197;-86
2022/03/01 04:28:52;;;;;;;19.80;6.70;;;;;;;;;;6131446;23;20236;-87
2022/03/01 04:31:57;;;;;;;18.40;6.87;;;;;;;;;;6132525;23;20173;-87
2022/03/01 04:35:05;;;;;;;18.87;6.83;;;;;;;;;;6132486;23;20173;-87
2022/03/01 04:38:10;;;;;;;21.97;7.53;;;;;;;;;;6134324;23;20172;-86
2022/03/01 04:41:17;;;;;;;19.40;7.27;;;;;;;;;;6134161;23;20433;-87
2022/03/01 04:44:23;;;;;;;19.20;6.40;;;;;;;;;;6134606;23;20249;-87
2022/03/01 04:47:29;;;;;;;15.17;6.17;;;;;;;;;;6134338;23;20181;-87
2022/03/01 04:50:34;;;;;;;18.93;6.70;;;;;;;;;;6133461;23;20185;-86
2022/03/01 04:53:41;;;;;;;13.93;6.07;;;;;;;;;;6155179;23;20630;-87
2022/03/01 04:56:47;;;;;;;18.70;6.57;;;;;;;;;;6163335;23;20291;-87
2022/03/01 04:59:52;;;;;;;13.87;6.43;;;;;;;;;;6164147;23;20592;-86
2022/03/01 05:03:00;;;;;;;13.00;4.53;;;;;;;;;;6146887;23;20174;-87
2022/03/01 05:06:06;;;;;;;19.33;6.07;;;;;;;;;;6162844;23;20184;-87
2022/03/01 05:09:12;;;;;;;12.10;5.50;;;;;;;;;;6162072;23;20180;-86
2022/03/01 05:12:19;;;;;;;15.97;6.47;;;;;;;;;;6145002;23;20177;-87
2022/03/01 05:15:26;;;;;;;20.93;6.80;;;;;;;;;;6144296;23;20208;-87
2022/03/01 05:18:31;;;;;;;16.63;6.70;;;;;;;;;;6144422;23;20567;-86
2022/03/01 05:21:40;;;;;;;17.40;6.50;;;;;;;;;;6144125;23;20181;-86
2022/03/01 05:24:45;;;;;;;19.67;6.27;;;;;;;;;;6145071;23;20236;-86
2022/03/01 05:27:53;;;;;;;18.13;6.40;;;;;;;;;;6145118;23;20431;-87
2022/03/01 05:30:58;;;;;;;15.43;6.50;;;;;;;;;;6145836;23;20249;-87
2022/03/01 05:34:04;;;;;;;22.07;6.97;;;;;;;;;;6145271;23;20176;-87
2022/03/01 05:37:10;;;;;;;18.20;6.90;;;;;;;;;;6162560;23;20184;-87
2022/03/01 05:40:15;;;;;;;17.63;6.30;;;;;;;;;;6145895;23;20545;-87
2022/03/01 05:43:22;;;;;;;20.13;6.70;;;;;;;;;;6161198;23;20395;-87
2022/03/01 05:46:28;;;;;;;15.10;6.80;;;;;;;;;;6143822;23;20172;-87
2022/03/01 05:49:33;;;;;;;18.40;7.57;;;;;;;;;;6144317;23;20529;-86
2022/03/01 05:52:39;;;;;;;20.50;7.70;;;;;;;;;;6143959;23;20184;-86
2022/03/01 05:55:45;;;;;;;24.97;6.73;;;;;;;;;;6148421;23;20189;-86
2022/03/01 05:58:52;;;;;;;15.80;6.30;;;;;;;;;;6131635;23;20176;-86
2022/03/01 06:01:57;;;;;;;13.73;6.17;;;;;;;;;;6131543;23;20418;-86
2022/03/01 06:05:02;;;;;;;17.57;6.80;;;;;;;;;;6131851;23;20224;-86
2022/03/01 06:08:07;;;;;;;25.40;6.63;;;;;;;;;;6131663;23;20172;-87
2022/03/01 06:11:13;;;;;;;18.77;6.53;;;;;;;;;;6132878;23;20415;-87
2022/03/01 06:14:20;;;;;;;16.00;6.43;;;;;;;;;;6131930;23;20173;-87
2022/03/01 06:17:26;;;;;;;16.83;6.57;;;;;;;;;;6133144;23;20276;-86
2022/03/01 06:20:32;;;;;;;16.03;6.40;;;;;;;;;;6145068;23;20196;-87
2022/03/01 06:23:37;;;;;;;18.13;7.80;;;;;;;;;;6131803;23;20181;-87
2022/03/01 06:26:43;;;;;;;18.23;6.97;;;;;;;;;;6130722;23;20209;-87
2022/03/01 06:29:50;;;;;;;17.33;7.47;;;;;;;;;;6137961;23;20173;-87
2022/03/01 06:32:56;;;;;;;17.00;6.70;;;;;;;;;;6148291;23;20218;-86
2022/03/01 06:36:01;;;;;;;17.60;6.83;;;;;;;;;;6151283;23;20161;-86
2022/03/01 06:39:06;;;;;;;16.70;6.07;;;;;;;;;;6152218;23;20161;-86
2022/03/01 06:42:12;;;;;;;17.93;6.67;;;;;;;;;;6152122;23;20180;-86
2022/03/01 06:45:19;;;;;;;20.87;7.17;;;;;;;;;;6147058;23;20659;-86
2022/03/01 06:48:25;;;;;;;19.87;6.97;;;;;;;;;;6144916;23;20177;-86
2022/03/01 06:51:30;;;;;;;26.37;7.33;;;;;;;;;;6132270;23;20405;-87
2022/03/01 06:54:36;;;;;;;21.53;6.47;;;;;;;;;;6132488;23;20224;-87
2022/03/01 06:57:41;;;;;;;21.67;8.17;;;;;;;;;;6130978;23;20417;-87
2022/03/01 07:00:48;;;;;;;17.50;6.87;;;;;;;;;;6131470;23;20196;-86
2022/03/01 07:03:53;;;;;;;16.73;6.47;;;;;;;;;;6131365;23;20273;-87
2022/03/01 07:06:59;;;;;;;22.23;6.53;;;;;;;;;;6130839;23;20220;-87
2022/03/01 07:10:05;;;;;;;18.57;6.43;;;;;;;;;;6130979;23;20175;-88
2022/03/01 07:13:10;;;;;;;48.20;13.63;;;;;;;;;;6136014;23;20176;-86
2022/03/01 07:16:19;;;;;;;25.67;8.93;;;;;;;;;;6140194;23;20241;-88
2022/03/01 07:19:24;;;;;;;21.03;8.40;;;;;;;;;;6130948;23;20407;-87
2022/03/01 07:22:30;;;;;;;18.97;6.50;;;;;;;;;;6131229;23;20169;-88
2022/03/01 07:25:35;;;;;;;19.30;7.17;;;;;;;;;;6138645;23;20277;-87
2022/03/01 07:28:40;;;;;;;17.87;6.97;;;;;;;;;;6130292;23;20181;-87
2022/03/01 07:31:50;;;;;;;22.47;7.67;;;;;;;;;;6131354;23;20490;-87
2022/03/01 07:35:08;;;;;;;15.83;6.30;;;;;;;;;;6132524;23;20970;-87
2022/03/01 07:38:14;;;;;;;20.67;7.17;;;;;;;;;;6131127;23;20173;-86
2022/03/01 07:41:19;;;;;;;22.70;7.37;;;;;;;;;;6130686;23;20193;-87
2022/03/01 07:44:25;;;;;;;15.03;6.30;;;;;;;;;;6131915;23;20530;-88
2022/03/01 07:47:32;;;;;;;17.50;6.13;;;;;;;;;;6131405;23;20169;-88
2022/03/01 07:50:37;;;;;;;14.67;5.90;;;;;;;;;;6147266;23;20228;-87
2022/03/01 07:53:44;;;;;;;16.63;6.50;;;;;;;;;;6118326;23;20184;-87
2022/03/01 07:56:49;;;;;;;20.63;6.60;;;;;;;;;;6141889;23;20172;-86
2022/03/01 07:59:55;;;;;;;13.00;5.27;;;;;;;;;;6143608;23;20409;-86
2022/03/01 08:03:02;;;;;;;10.37;4.80;;;;;;;;;;6143672;23;20202;-86
2022/03/01 08:06:07;;;;;;;12.97;5.37;;;;;;;;;;6142733;23;20183;-86
2022/03/01 08:09:13;;;;;;;14.50;5.57;;;;;;;;;;6160248;23;20176;-87
2022/03/01 08:12:18;;;;;;;19.73;6.10;;;;;;;;;;6162633;23;20184;-86
2022/03/01 08:15:26;;;;;;;9.07;4.50;;;;;;;;;;6162193;23;20263;-88
2022/03/01 08:18:33;;;;;;;12.87;5.80;;;;;;;;;;6145103;23;20207;-85
2022/03/01 08:21:40;;;;;;;14.17;4.80;;;;;;;;;;6163614;23;20279;-87
2022/03/01 08:24:46;;;;;;;13.87;4.53;;;;;;;;;;6162402;23;20534;-87
2022/03/01 08:27:51;;;;;;;17.53;5.10;;;;;;;;;;6144834;23;20227;-85
2022/03/01 08:30:57;;;;;;;13.10;4.47;;;;;;;;;;6146647;23;20173;-87
2022/03/01 08:34:05;;;;;;;13.13;4.97;;;;;;;;;;6145126;23;20184;-87
2022/03/01 08:37:10;;;;;;;9.10;4.40;;;;;;;;;;6145131;23;20172;-87
2022/03/01 08:40:18;;;;;;;11.37;4.63;;;;;;;;;;6145266;23;20252;-86
2022/03/01 08:43:23;;;;;;;10.70;4.60;;;;;;;;;;6146255;23;20231;-87
2022/03/01 08:46:29;;;;;;;13.53;4.47;;;;;;;;;;6146799;23;20404;-87
2022/03/01 08:49:36;;;;;;;12.07;4.57;;;;;;;;;;6166221;23;20192;-88
2022/03/01 08:52:45;;;;;;;11.77;3.90;;;;;;;;;;6166872;23;20353;-88
2022/03/01 08:55:56;;;;;;;8.23;3.63;;;;;;;;;;6150025;23;20236;-88
2022/03/01 08:59:05;;;;;;;11.07;4.80;;;;;;;;;;6147655;23;20173;-89
2022/03/01 09:02:11;;;;;;;9.70;4.07;;;;;;;;;;6148483;23;20200;-89
2022/03/01 09:05:21;;;;;;;9.57;3.77;;;;;;;;;;6130133;23;20239;-87
2022/03/01 09:08:26;;;;;;;10.17;4.10;;;;;;;;;;6145286;23;20181;-87
2022/03/01 09:11:35;;;;;;;9.37;3.70;;;;;;;;;;6145824;23;20173;-85
2022/03/01 09:14:41;;;;;;;6.57;3.40;;;;;;;;;;6146871;23;20630;-86
2022/03/01 09:17:48;;;;;;;12.27;4.10;;;;;;;;;;6145441;23;20259;-86
2022/03/01 09:20:55;;;;;;;12.17;3.37;;;;;;;;;;6149945;23;20212;-87
2022/03/01 09:24:01;;;;;;;13.03;3.97;;;;;;;;;;6159938;23;20160;-88
2022/03/01 09:27:06;;;;;;;10.43;3.80;;;;;;;;;;6164177;23;20176;-87
2022/03/01 09:30:12;;;;;;;8.60;3.37;;;;;;;;;;6164988;23;20161;-88
2022/03/01 09:33:18;;;;;;;11.20;3.77;;;;;;;;;;6163428;23;20188;-87
2022/03/01 09:36:27;;;;;;;6.63;3.27;;;;;;;;;;6162600;23;20181;-88
2022/03/01 09:39:33;;;;;;;7.20;3.17;;;;;;;;;;6159110;23;20229;-87
2022/03/01 09:42:38;;;;;;;6.53;3.20;;;;;;;;;;6150603;23;20204;-87
2022/03/01 09:45:44;;;;;;;10.97;3.93;;;;;;;;;;6165555;23;20171;-88
2022/03/01 09:48:50;;;;;;;6.93;2.80;;;;;;;;;;6148295;23;20172;-88
2022/03/01 09:51:58;;;;;;;8.17;3.00;;;;;;;;;;6149168;23;20553;-89
2022/03/01 09:55:03;;;;;;;5.90;2.77;;;;;;;;;;6139099;23;20192;-87
2022/03/01 09:58:11;;;;;;;6.80;2.87;;;;;;;;;;6137471;23;20202;-87
2022/03/01 10:01:16;;;;;;;7.30;3.20;;;;;;;;;;6136671;23;20265;-87
2022/03/01 10:04:22;;;;;;;6.10;2.63;;;;;;;;;;6136251;23;20225;-88
2022/03/01 10:07:32;;;;;;;6.73;2.60;;;;;;;;;;6137153;23;20185;-87
2022/03/01 10:10:39;;;;;;;8.23;2.83;;;;;;;;;;6137858;23;20600;-87
2022/03/01 10:13:45;;;;;;;8.17;2.53;;;;;;;;;;6134590;23;20456;-86
2022/03/01 10:16:51;;;;;;;7.03;2.40;;;;;;;;;;6131267;23;20342;-88
2022/03/01 10:20:02;;;;;;;4.57;2.30;;;;;;;;;;6142974;23;20173;-87
2022/03/01 10:23:10;;;;;;;6.27;2.03;;;;;;;;;;6133309;23;20168;-88
2022/03/01 10:26:16;;;;;;;6.27;2.90;;;;;;;;;;6136688;23;20233;-87
2022/03/01 10:29:27;;;;;;;11.43;2.77;;;;;;;;;;6133862;23;20173;-88
2022/03/01 10:32:33;;;;;;;4.23;2.10;;;;;;;;;;6133881;23;20173;-88
2022/03/01 10:35:43;;;;;;;8.70;3.10;;;;;;;;;;6133596;23;20192;-87
2022/03/01 10:38:56;;;;;;;6.93;2.90;;;;;;;;;;6133014;23;20189;-87
2022/03/01 10:42:05;;;;;;;7.60;2.90;;;;;;;;;;6131991;23;20268;-87
2022/03/01 10:45:12;;;;;;;8.83;3.20;;;;;;;;;;6135270;23;20173;-88
2022/03/01 10:48:25;;;;;;;8.07;2.80;;;;;;;;;;6131913;23;20207;-87
2022/03/01 10:51:30;;;;;;;4.70;2.57;;;;;;;;;;6131506;23;20168;-87
2022/03/01 10:54:38;;;;;;;8.53;3.53;;;;;;;;;;6132349;23;20214;-88
2022/03/01 10:57:43;;;;;;;6.97;2.70;;;;;;;;;;6131079;23;20173;-88
2022/03/01 11:00:48;;;;;;;7.67;3.00;;;;;;;;;;6130720;23;20174;-87
2022/03/01 11:03:56;;;;;;;8.90;2.80;;;;;;;;;;6131334;23;20230;-88
2022/03/01 11:07:02;;;;;;;6.30;2.53;;;;;;;;;;6130933;23;20231;-89
2022/03/01 11:10:12;;;;;;;5.13;2.60;;;;;;;;;;6131383;23;20235;-89
2022/03/01 11:13:20;;;;;;;5.57;2.60;;;;;;;;;;6132887;23;20171;-89
2022/03/01 11:16:29;;;;;;;5.90;2.23;;;;;;;;;;6131013;23;20177;-89
2022/03/01 11:19:40;;;;;;;4.70;2.30;;;;;;;;;;6131489;23;20224;-87
2022/03/01 11:22:46;;;;;;;4.67;2.37;;;;;;;;;;6131333;23;20197;-87
2022/03/01 11:25:53;;;;;;;5.90;2.57;;;;;;;;;;6131071;23;20174;-87
2022/03/01 11:28:59;;;;;;;9.67;3.80;;;;;;;;;;6131132;23;20509;-87
2022/03/01 11:32:09;;;;;;;5.97;2.50;;;;;;;;;;6133200;23;20177;-87
2022/03/01 11:35:19;;;;;;;7.37;2.77;;;;;;;;;;6141688;23;20194;-86
2022/03/01 11:38:28;;;;;;;4.63;2.37;;;;;;;;;;6138804;23;20200;-89
2022/03/01 11:41:42;;;;;;;5.03;2.50;;;;;;;;;;6135368;23;20196;-88
2022/03/01 11:44:50;;;;;;;6.07;2.50;;;;;;;;;;6150694;23;20185;-88
2022/03/01 11:48:03;;;;;;;6.93;2.70;;;;;;;;;;6149770;23;20190;-87
2022/03/01 11:51:08;;;;;;;6.83;2.40;;;;;;;;;;6150980;23;20157;-88
2022/03/01 11:54:20;;;;;;;8.13;2.60;;;;;;;;;;6158305;23;20417;-87
2022/03/01 11:57:29;;;;;;;5.67;2.50;;;;;;;;;;6145061;23;20185;-89
2022/03/01 12:00:39;;;;;;;6.77;2.73;;;;;;;;;;6144788;23;20476;-88
2022/03/01 12:03:45;;;;;;;9.10;3.07;;;;;;;;;;6146207;23;20177;-88
2022/03/01 12:06:55;;;;;;;11.13;3.50;;;;;;;;;;6143617;23;20335;-88
2022/03/01 12:10:01;;;;;;;6.97;2.90;;;;;;;;;;6148550;23;20180;-87
2022/03/01 12:13:09;;;;;;;5.67;2.97;;;;;;;;;;6162756;23;20196;-88
2022/03/01 12:16:16;;;;;;;8.43;3.37;;;;;;;;;;6143751;23;20191;-88
2022/03/01 12:19:22;;;;;;;7.53;3.40;;;;;;;;;;6144109;23;20168;-89
2022/03/01 12:22:29;;;;;;;10.20;3.40;;;;;;;;;;6144066;23;20192;-89
2022/03/01 12:25:35;;;;;;;12.07;3.40;;;;;;;;;;6144166;23;20220;-89
2022/03/01 12:28:44;;;;;;;5.27;3.30;;;;;;;;;;6144524;23;20177;-89
2022/03/01 12:31:57;;;;;;;8.67;3.50;;;;;;;;;;6143641;23;20165;-88
2022/03/01 12:35:03;;;;;;;8.70;3.00;;;;;;;;;;6144517;23;20184;-89
2022/03/01 12:38:10;;;;;;;9.30;3.50;;;;;;;;;;6143405;23;20205;-87
2022/03/01 12:41:16;;;;;;;6.87;3.40;;;;;;;;;;6143890;23;20259;-88
2022/03/01 12:44:24;;;;;;;8.13;3.67;;;;;;;;;;6162587;23;20172;-89
2022/03/01 12:47:30;;;;;;;8.23;3.30;;;;;;;;;;6145697;23;20184;-88
2022/03/01 12:50:37;;;;;;;8.47;3.60;;;;;;;;;;6151156;23;20176;-86
2022/03/01 12:53:53;;;;;;;10.00;3.70;;;;;;;;;;6152002;23;20181;-86
2022/03/01 12:57:00;;;;;;;7.97;3.40;;;;;;;;;;6169941;23;20180;-86
2022/03/01 13:00:13;;;;;;;6.80;2.93;;;;;;;;;;6150529;23;20275;-88
2022/03/01 13:03:33;;;;;;;10.10;3.17;;;;;;;;;;6146880;23;20202;-87
2022/03/01 13:06:39;;;;;;;7.30;3.63;;;;;;;;;;6145100;23;20172;-88
2022/03/01 13:09:45;;;;;;;13.97;4.17;;;;;;;;;;6145779;23;20255;-89
2022/03/01 13:12:53;;;;;;;8.23;3.67;;;;;;;;;;6146879;23;20424;-88
2022/03/01 13:16:07;;;;;;;8.00;3.40;;;;;;;;;;6147788;23;20172;-87
2022/03/01 13:19:14;;;;;;;19.17;3.70;;;;;;;;;;6147057;23;20176;-88
2022/03/01 13:22:21;;;;;;;8.85;2.95;;;;;;;;;;6164561;23;20239;-88
2022/03/01 13:25:27;;;;;;;7.38;3.25;;;;;;;;;;6146906;23;20192;-87
2022/03/01 13:28:34;;;;;;;10.55;3.92;;;;;;;;;;6147854;23;20416;-87
2022/03/01 13:31:45;;;;;;;6.85;3.10;;;;;;;;;;6146315;23;20177;-88
2022/03/01 13:34:54;;;;;;;7.10;3.45;;;;;;;;;;6147097;23;20215;-89
2022/03/01 13:38:01;;;;;;;12.30;3.75;;;;;;;;;;6148054;23;20324;-90
2022/03/01 13:41:07;;;;;;;13.73;3.90;;;;;;;;;;6146305;23;20180;-89
2022/03/01 13:44:17;;;;;;;7.20;3.33;;;;;;;;;;6145926;23;20219;-87
2022/03/01 13:47:25;;;;;;;10.88;3.70;;;;;;;;;;6145946;23;20180;-89
2022/03/01 13:50:32;;;;;;;11.02;3.97;;;;;;;;;;6146043;23;20208;-88
2022/03/01 13:53:38;;;;;;;9.52;3.75;;;;;;;;;;6145494;23;20180;-88
2022/03/01 13:56:49;;;;;;;7.43;3.78;;;;;;;;;;6148104;23;20550;-88
2022/03/01 13:59:58;;;;;;;9.80;3.63;;;;;;;;;;6145237;23;20177;-88
2022/03/01 14:06:29;;;;;;;7.35;3.60;;;;;;;;;;6160995;23;20223;-89
2022/03/01 14:09:34;;;;;;;7.90;3.60;;;;;;;;;;6144913;23;20223;-88
2022/03/01 14:12:41;;;;;;;9.43;4.55;;;;;;;;;;6146331;23;20269;-87
2022/03/01 14:15:50;;;;;;;9.27;4.13;;;;;;;;;;6144736;23;20433;-88
2022/03/01 14:19:02;;;;;;;8.93;4.40;;;;;;;;;;6144935;23;20522;-88
2022/03/01 14:22:08;;;;;;;21.42;5.03;;;;;;;;;;6147288;23;20195;-87
2022/03/01 14:25:15;;;;;;;7.97;4.00;;;;;;;;;;6144806;23;20300;-88
2022/03/01 14:28:23;;;;;;;16.00;6.47;;;;;;;;;;6148033;23;20176;-88
2022/03/01 14:31:31;;;;;;;10.02;4.07;;;;;;;;;;6151527;23;20234;-88
2022/03/01 14:34:39;;;;;;;15.00;5.20;;;;;;;;;;6165708;23;20252;-89
2022/03/01 14:37:44;;;;;;;10.57;3.97;;;;;;;;;;6146181;23;20250;-88
2022/03/01 14:40:49;;;;;;;8.80;4.60;;;;;;;;;;6144430;23;20176;-88
2022/03/01 14:43:58;;;;;;;11.68;4.38;;;;;;;;;;6145136;23;20200;-87
2022/03/01 14:47:03;;;;;;;10.75;4.35;;;;;;;;;;6145349;23;20180;-88
2022/03/01 14:50:11;;;;;;;11.77;3.88;;;;;;;;;;6153024;23;20172;-87
2022/03/01 14:53:16;;;;;;;9.70;4.20;;;;;;;;;;6159494;23;20172;-87
2022/03/01 14:56:23;;;;;;;8.40;3.78;;;;;;;;;;6160360;23;20165;-88
2022/03/01 14:59:29;;;;;;;10.90;4.88;;;;;;;;;;6159102;23;20237;-88
2022/03/01 15:02:36;;;;;;;12.13;4.82;;;;;;;;;;6144917;23;20577;-88
2022/03/01 15:05:44;;;;;;;8.73;4.28;;;;;;;;;;6149870;23;20175;-89
2022/03/01 15:08:50;;;;;;;8.85;4.13;;;;;;;;;;6145877;23;20179;-87
2022/03/01 15:11:55;;;;;;;11.05;4.50;;;;;;;;;;6144468;23;20411;-89
2022/03/01 15:15:01;;;;;;;9.60;4.53;;;;;;;;;;6144286;23;20180;-88
2022/03/01 15:18:07;;;;;;;12.10;4.47;;;;;;;;;;6143380;23;20279;-88
2022/03/01 15:21:14;;;;;;;9.23;4.28;;;;;;;;;;6146390;23;20549;-88
2022/03/01 15:24:19;;;;;;;12.67;4.53;;;;;;;;;;6144327;23;20200;-88
2022/03/01 15:27:25;;;;;;;8.00;4.00;;;;;;;;;;6143701;23;20184;-89
2022/03/01 15:30:30;;;;;;;10.60;4.43;;;;;;;;;;6147331;23;20209;-88
2022/03/01 15:33:36;;;;;;;10.15;5.18;;;;;;;;;;6144385;23;20426;-87
2022/03/01 15:36:44;;;;;;;10.80;4.78;;;;;;;;;;6166255;23;20176;-87
2022/03/01 15:39:50;;;;;;;11.00;5.00;;;;;;;;;;6143815;23;20176;-88
2022/03/01 15:42:56;;;;;;;13.27;5.28;;;;;;;;;;6143837;23;20212;-89
2022/03/01 15:46:02;;;;;;;11.82;5.20;;;;;;;;;;6144458;23;20189;-88
2022/03/01 15:49:07;;;;;;;10.82;4.88;;;;;;;;;;6145031;23;20172;-88
2022/03/01 15:52:15;;;;;;;10.85;4.78;;;;;;;;;;6144809;23;20280;-87
2022/03/01 15:55:21;;;;;;;9.13;4.57;;;;;;;;;;6143620;23;20475;-88
2022/03/01 15:58:27;;;;;;;12.02;5.55;;;;;;;;;;6144536;23;20180;-87
2022/03/01 16:01:34;;;;;;;9.32;4.93;;;;;;;;;;6143752;23;20196;-87
2022/03/01 16:04:39;;;;;;;11.27;4.80;;;;;;;;;;6144098;23;20451;-87
2022/03/01 16:07:48;;;;;;;16.80;6.97;;;;;;;;;;6145591;23;20537;-88
2022/03/01 16:10:57;;;;;;;10.63;4.70;;;;;;;;;;6144072;23;20626;-88
2022/03/01 16:14:04;;;;;;;16.27;5.40;;;;;;;;;;6145032;23;20172;-86
2022/03/01 16:17:10;;;;;;;10.07;5.13;;;;;;;;;;6142451;23;20424;-87
2022/03/01 16:20:16;;;;;;;12.10;4.80;;;;;;;;;;6144200;23;20172;-87
2022/03/01 16:23:28;;;;;;;13.40;5.33;;;;;;;;;;6144276;23;20215;-89
2022/03/01 16:26:33;;;;;;;10.83;5.30;;;;;;;;;;6143135;23;20180;-89
2022/03/01 16:29:40;;;;;;;14.73;6.23;;;;;;;;;;6144491;23;20189;-86
2022/03/01 16:32:45;;;;;;;15.77;6.10;;;;;;;;;;6147165;23;20221;-88
2022/03/01 16:35:50;;;;;;;23.17;9.17;;;;;;;;;;6148911;23;20420;-87
2022/03/01 16:38:58;;;;;;;18.10;6.87;;;;;;;;;;6147830;23;20176;-88
2022/03/01 16:42:04;;;;;;;20.43;8.13;;;;;;;;;;6141503;23;20264;-86
2022/03/01 16:45:10;;;;;;;20.20;7.47;;;;;;;;;;6143791;23;20192;-87
2022/03/01 16:48:15;;;;;;;22.47;7.80;;;;;;;;;;6144855;23;20180;-88
2022/03/01 16:51:25;;;;;;;22.37;8.30;;;;;;;;;;6145709;23;20255;-88
2022/03/01 16:54:40;;;;;;;33.50;11.30;;;;;;;;;;6144319;23;20188;-89
2022/03/01 16:57:47;;;;;;;28.73;9.97;;;;;;;;;;6153764;23;20609;-88
2022/03/01 17:00:55;;;;;;;24.07;9.77;;;;;;;;;;6145515;23;20610;-88
2022/03/01 17:04:00;;;;;;;21.47;9.10;;;;;;;;;;6164320;23;20196;-89
2022/03/01 17:07:06;;;;;;;25.17;7.93;;;;;;;;;;6144846;23;20180;-89
2022/03/01 17:10:13;;;;;;;22.97;6.63;;;;;;;;;;6144561;23;20284;-89
2022/03/01 17:13:19;;;;;;;19.43;7.67;;;;;;;;;;6145018;23;20610;-88
2022/03/01 17:16:28;;;;;;;21.93;7.30;;;;;;;;;;6144226;23;20180;-87
2022/03/01 17:19:34;;;;;;;18.77;7.77;;;;;;;;;;6144832;23;20177;-87
2022/03/01 17:22:39;;;;;;;16.40;7.80;;;;;;;;;;6145173;23;20509;-86
2022/03/01 17:25:46;;;;;;;22.83;8.83;;;;;;;;;;6145127;23;20188;-87
2022/03/01 17:28:52;;;;;;;28.57;9.80;;;;;;;;;;6146566;23;20267;-87
2022/03/01 17:31:58;;;;;;;30.47;10.60;;;;;;;;;;6146444;23;20220;-87
2022/03/01 17:35:05;;;;;;;17.40;8.00;;;;;;;;;;6161380;23;20216;-87
2022/03/01 17:38:10;;;;;;;20.73;8.27;;;;;;;;;;6145366;23;20176;-87
2022/03/01 17:41:19;;;;;;;29.87;19.20;;;;;;;;;;6143924;23;20533;-89
2022/03/01 17:44:24;;;;;;;29.73;8.93;;;;;;;;;;6161451;23;20256;-87
2022/03/01 17:47:30;;;;;;;17.63;8.10;;;;;;;;;;6145860;23;20177;-86
2022/03/01 17:50:35;;;;;;;28.57;8.90;;;;;;;;;;6145406;23;20176;-87
2022/03/01 17:53:40;;;;;;;23.47;9.70;;;;;;;;;;6146027;23;20184;-87
2022/03/01 17:56:47;;;;;;;23.97;9.50;;;;;;;;;;6144083;23;20180;-87
2022/03/01 17:59:55;;;;;;;29.40;13.00;;;;;;;;;;6144688;23;20180;-87
2022/03/01 18:03:01;;;;;;;34.13;12.03;;;;;;;;;;6144245;23;20181;-88
2022/03/01 18:06:06;;;;;;;25.13;10.93;;;;;;;;;;6144072;23;20219;-89
2022/03/01 18:09:12;;;;;;;29.60;11.20;;;;;;;;;;6143973;23;20185;-89
2022/03/01 18:12:19;;;;;;;47.37;14.47;;;;;;;;;;6129641;23;20216;-88
2022/03/01 18:15:28;;;;;;;29.23;12.10;;;;;;;;;;6147896;23;20168;-88
2022/03/01 18:18:35;;;;;;;31.87;11.53;;;;;;;;;;6146899;23;20204;-89
2022/03/01 18:21:41;;;;;;;32.37;12.73;;;;;;;;;;6147629;23;20172;-88
2022/03/01 18:24:47;;;;;;;33.83;13.70;;;;;;;;;;6148113;23;20204;-88
2022/03/01 18:27:54;;;;;;;38.70;12.90;;;;;;;;;;6147530;23;20183;-86
2022/03/01 18:31:00;;;;;;;37.50;13.40;;;;;;;;;;6164768;23;20160;-87